sensor_id;sensor_type;location;lat;lon;timestamp;P1;durP1;ratioP1;P2;durP2;ratioP2
57047;SDS011;42934;54.294;18.598;2023-02-01T00:01:43;9.40;;;1.52;;
57047;SDS011;42934;54.294;18.598;2023-02-01T00:04:12;7.03;;;1.15;;
57047;SDS011;42934;54.294;18.598;2023-02-01T00:06:41;6.75;;;1.17;;
57047;SDS011;42934;54.294;18.598;2023-02-01T00:09:10;6.28;;;1.27;;
57047;SDS011;42934;54.294;18.598;2023-02-01T00:11:41;1.95;;;0.95;;
57047;SDS011;42934;54.294;18.598;2023-02-01T00:14:10;5.35;;;1.10;;
57047;SDS011;42934;54.294;18.598;2023-02-01T00:16:39;5.63;;;1.10;;
57047;SDS011;42934;54.294;18.598;2023-02-01T00:19:09;6.53;;;1.10;;
57047;SDS011;42934;54.294;18.598;2023-02-01T00:21:40;4.05;;;1.20;;
57047;SDS011;42934;54.294;18.598;2023-02-01T00:24:11;5.82;;;1.20;;
57047;SDS011;42934;54.294;18.598;2023-02-01T00:26:42;3.70;;;1.15;;
57047;SDS011;42934;54.294;18.598;2023-02-01T00:29:14;6.22;;;1.23;;
57047;SDS011;42934;54.294;18.598;2023-02-01T00:31:44;6.88;;;1.00;;
57047;SDS011;42934;54.294;18.598;2023-02-01T00:34:14;8.55;;;1.20;;
57047;SDS011;42934;54.294;18.598;2023-02-01T00:36:44;4.97;;;1.23;;
57047;SDS011;42934;54.294;18.598;2023-02-01T00:39:14;6.57;;;1.23;;
57047;SDS011;42934;54.294;18.598;2023-02-01T00:41:45;2.47;;;0.80;;
57047;SDS011;42934;54.294;18.598;2023-02-01T00:44:15;3.40;;;0.88;;
57047;SDS011;42934;54.294;18.598;2023-02-01T00:46:44;4.05;;;0.80;;
57047;SDS011;42934;54.294;18.598;2023-02-01T00:49:13;4.28;;;0.93;;
57047;SDS011;42934;54.294;18.598;2023-02-01T00:51:42;5.45;;;0.98;;
57047;SDS011;42934;54.294;18.598;2023-02-01T00:54:11;2.67;;;0.63;;
57047;SDS011;42934;54.294;18.598;2023-02-01T00:56:40;6.55;;;0.90;;
57047;SDS011;42934;54.294;18.598;2023-02-01T00:59:11;6.28;;;1.20;;
57047;SDS011;42934;54.294;18.598;2023-02-01T01:01:40;4.70;;;1.13;;
57047;SDS011;42934;54.294;18.598;2023-02-01T01:04:10;1.58;;;0.63;;
57047;SDS011;42934;54.294;18.598;2023-02-01T01:06:39;6.18;;;0.85;;
57047;SDS011;42934;54.294;18.598;2023-02-01T01:09:09;4.75;;;0.88;;
57047;SDS011;42934;54.294;18.598;2023-02-01T01:11:38;6.85;;;1.13;;
57047;SDS011;42934;54.294;18.598;2023-02-01T01:14:09;7.07;;;1.20;;
57047;SDS011;42934;54.294;18.598;2023-02-01T01:16:43;6.75;;;1.52;;
57047;SDS011;42934;54.294;18.598;2023-02-01T01:19:12;7.57;;;1.15;;
57047;SDS011;42934;54.294;18.598;2023-02-01T01:21:41;3.20;;;0.57;;
57047;SDS011;42934;54.294;18.598;2023-02-01T01:24:10;3.47;;;0.68;;
57047;SDS011;42934;54.294;18.598;2023-02-01T01:26:39;3.90;;;0.60;;
57047;SDS011;42934;54.294;18.598;2023-02-01T01:29:08;3.45;;;0.70;;
57047;SDS011;42934;54.294;18.598;2023-02-01T01:31:39;5.88;;;0.93;;
57047;SDS011;42934;54.294;18.598;2023-02-01T01:34:09;6.68;;;0.90;;
57047;SDS011;42934;54.294;18.598;2023-02-01T01:36:37;2.72;;;0.88;;
57047;SDS011;42934;54.294;18.598;2023-02-01T01:39:07;6.60;;;0.90;;
57047;SDS011;42934;54.294;18.598;2023-02-01T01:41:36;5.57;;;1.27;;
57047;SDS011;42934;54.294;18.598;2023-02-01T01:47:27;4.60;;;1.35;;
57047;SDS011;42934;54.294;18.598;2023-02-01T01:50:01;3.85;;;0.75;;
57047;SDS011;42934;54.294;18.598;2023-02-01T01:55:01;4.78;;;0.80;;
57047;SDS011;42934;54.294;18.598;2023-02-01T01:57:31;2.85;;;0.60;;
57047;SDS011;42934;54.294;18.598;2023-02-01T02:00:07;5.15;;;1.10;;
57047;SDS011;42934;54.294;18.598;2023-02-01T02:02:44;3.60;;;0.90;;
57047;SDS011;42934;54.294;18.598;2023-02-01T02:05:21;4.97;;;0.93;;
57047;SDS011;42934;54.294;18.598;2023-02-01T02:07:50;4.03;;;1.00;;
57047;SDS011;42934;54.294;18.598;2023-02-01T02:10:21;5.80;;;1.08;;
57047;SDS011;42934;54.294;18.598;2023-02-01T02:13:10;6.72;;;1.33;;
57047;SDS011;42934;54.294;18.598;2023-02-01T02:15:42;6.10;;;1.00;;
57047;SDS011;42934;54.294;18.598;2023-02-01T02:18:19;6.22;;;1.00;;
57047;SDS011;42934;54.294;18.598;2023-02-01T02:21:09;3.92;;;1.00;;
57047;SDS011;42934;54.294;18.598;2023-02-01T02:27:01;6.47;;;0.90;;
57047;SDS011;42934;54.294;18.598;2023-02-01T02:36:16;4.57;;;0.80;;
57047;SDS011;42934;54.294;18.598;2023-02-01T02:38:52;2.83;;;0.80;;
57047;SDS011;42934;54.294;18.598;2023-02-01T02:41:34;2.88;;;0.68;;
57047;SDS011;42934;54.294;18.598;2023-02-01T02:44:35;4.00;;;0.90;;
57047;SDS011;42934;54.294;18.598;2023-02-01T02:47:32;2.78;;;0.50;;
57047;SDS011;42934;54.294;18.598;2023-02-01T02:50:11;3.05;;;0.52;;
57047;SDS011;42934;54.294;18.598;2023-02-01T02:53:06;1.50;;;0.68;;
57047;SDS011;42934;54.294;18.598;2023-02-01T02:55:59;1.70;;;0.55;;
57047;SDS011;42934;54.294;18.598;2023-02-01T02:58:48;2.15;;;0.73;;
57047;SDS011;42934;54.294;18.598;2023-02-01T03:01:35;3.00;;;0.90;;
57047;SDS011;42934;54.294;18.598;2023-02-01T03:04:25;3.50;;;0.88;;
57047;SDS011;42934;54.294;18.598;2023-02-01T03:06:54;4.57;;;0.88;;
57047;SDS011;42934;54.294;18.598;2023-02-01T03:09:26;2.05;;;0.80;;
57047;SDS011;42934;54.294;18.598;2023-02-01T03:12:00;3.47;;;0.70;;
57047;SDS011;42934;54.294;18.598;2023-02-01T03:15:00;2.22;;;0.60;;
57047;SDS011;42934;54.294;18.598;2023-02-01T03:17:35;2.22;;;0.70;;
57047;SDS011;42934;54.294;18.598;2023-02-01T03:20:10;1.55;;;0.43;;
57047;SDS011;42934;54.294;18.598;2023-02-01T03:22:41;2.97;;;0.70;;
57047;SDS011;42934;54.294;18.598;2023-02-01T03:25:15;2.58;;;0.70;;
57047;SDS011;42934;54.294;18.598;2023-02-01T03:27:51;2.60;;;0.70;;
57047;SDS011;42934;54.294;18.598;2023-02-01T03:30:24;4.80;;;0.75;;
57047;SDS011;42934;54.294;18.598;2023-02-01T03:32:55;4.40;;;0.98;;
57047;SDS011;42934;54.294;18.598;2023-02-01T03:35:30;6.00;;;1.13;;
57047;SDS011;42934;54.294;18.598;2023-02-01T03:38:07;5.75;;;1.30;;
57047;SDS011;42934;54.294;18.598;2023-02-01T03:40:44;5.10;;;1.30;;
57047;SDS011;42934;54.294;18.598;2023-02-01T03:43:19;6.00;;;1.30;;
57047;SDS011;42934;54.294;18.598;2023-02-01T03:45:52;5.47;;;1.50;;
57047;SDS011;42934;54.294;18.598;2023-02-01T03:48:28;5.38;;;1.30;;
57047;SDS011;42934;54.294;18.598;2023-02-01T03:50:59;5.13;;;1.17;;
57047;SDS011;42934;54.294;18.598;2023-02-01T03:53:32;7.40;;;1.08;;
57047;SDS011;42934;54.294;18.598;2023-02-01T03:56:07;7.05;;;1.40;;
57047;SDS011;42934;54.294;18.598;2023-02-01T03:58:38;9.32;;;1.50;;
57047;SDS011;42934;54.294;18.598;2023-02-01T04:01:07;8.40;;;1.40;;
57047;SDS011;42934;54.294;18.598;2023-02-01T04:03:38;11.02;;;1.33;;
57047;SDS011;42934;54.294;18.598;2023-02-01T04:06:07;5.43;;;1.15;;
57047;SDS011;42934;54.294;18.598;2023-02-01T04:08:36;4.95;;;0.88;;
57047;SDS011;42934;54.294;18.598;2023-02-01T04:11:07;6.20;;;1.45;;
57047;SDS011;42934;54.294;18.598;2023-02-01T04:13:36;6.00;;;1.10;;
57047;SDS011;42934;54.294;18.598;2023-02-01T04:16:05;8.77;;;1.40;;
57047;SDS011;42934;54.294;18.598;2023-02-01T04:18:34;6.83;;;1.33;;
57047;SDS011;42934;54.294;18.598;2023-02-01T04:21:03;7.60;;;1.50;;
57047;SDS011;42934;54.294;18.598;2023-02-01T04:23:33;6.07;;;1.38;;
57047;SDS011;42934;54.294;18.598;2023-02-01T04:26:03;4.95;;;0.90;;
57047;SDS011;42934;54.294;18.598;2023-02-01T04:28:34;9.45;;;1.25;;
57047;SDS011;42934;54.294;18.598;2023-02-01T04:33:32;4.32;;;0.90;;
57047;SDS011;42934;54.294;18.598;2023-02-01T04:36:01;4.55;;;1.10;;
57047;SDS011;42934;54.294;18.598;2023-02-01T04:38:30;5.35;;;1.20;;
57047;SDS011;42934;54.294;18.598;2023-02-01T04:40:59;5.88;;;1.30;;
57047;SDS011;42934;54.294;18.598;2023-02-01T04:43:28;6.65;;;1.75;;
57047;SDS011;42934;54.294;18.598;2023-02-01T04:45:59;5.30;;;0.90;;
57047;SDS011;42934;54.294;18.598;2023-02-01T04:48:29;5.00;;;1.10;;
57047;SDS011;42934;54.294;18.598;2023-02-01T04:50:58;6.60;;;0.98;;
57047;SDS011;42934;54.294;18.598;2023-02-01T04:53:27;8.63;;;0.93;;
57047;SDS011;42934;54.294;18.598;2023-02-01T04:55:56;5.95;;;0.90;;
57047;SDS011;42934;54.294;18.598;2023-02-01T04:58:25;8.52;;;1.40;;
57047;SDS011;42934;54.294;18.598;2023-02-01T05:00:54;6.47;;;1.30;;
57047;SDS011;42934;54.294;18.598;2023-02-01T05:03:25;9.73;;;1.58;;
57047;SDS011;42934;54.294;18.598;2023-02-01T05:05:54;9.10;;;1.13;;
57047;SDS011;42934;54.294;18.598;2023-02-01T05:08:23;6.75;;;1.05;;
57047;SDS011;42934;54.294;18.598;2023-02-01T05:10:53;6.25;;;1.30;;
57047;SDS011;42934;54.294;18.598;2023-02-01T05:13:22;8.30;;;1.27;;
57047;SDS011;42934;54.294;18.598;2023-02-01T05:16:09;7.43;;;1.50;;
57047;SDS011;42934;54.294;18.598;2023-02-01T05:18:39;7.50;;;1.50;;
57047;SDS011;42934;54.294;18.598;2023-02-01T05:23:37;7.53;;;1.10;;
57047;SDS011;42934;54.294;18.598;2023-02-01T05:26:20;5.40;;;1.30;;
57047;SDS011;42934;54.294;18.598;2023-02-01T05:28:49;8.82;;;1.40;;
57047;SDS011;42934;54.294;18.598;2023-02-01T05:31:19;9.43;;;1.50;;
57047;SDS011;42934;54.294;18.598;2023-02-01T05:33:50;10.57;;;1.95;;
57047;SDS011;42934;54.294;18.598;2023-02-01T05:38:48;4.63;;;1.50;;
57047;SDS011;42934;54.294;18.598;2023-02-01T05:41:17;7.70;;;1.35;;
57047;SDS011;42934;54.294;18.598;2023-02-01T05:43:46;10.32;;;1.73;;
57047;SDS011;42934;54.294;18.598;2023-02-01T05:46:15;6.00;;;1.40;;
57047;SDS011;42934;54.294;18.598;2023-02-01T05:48:44;9.45;;;1.73;;
57047;SDS011;42934;54.294;18.598;2023-02-01T05:51:14;5.10;;;1.20;;
57047;SDS011;42934;54.294;18.598;2023-02-01T05:53:44;5.72;;;1.48;;
57047;SDS011;42934;54.294;18.598;2023-02-01T05:56:13;6.78;;;1.10;;
57047;SDS011;42934;54.294;18.598;2023-02-01T05:58:42;6.10;;;1.50;;
57047;SDS011;42934;54.294;18.598;2023-02-01T06:01:11;4.85;;;1.42;;
57047;SDS011;42934;54.294;18.598;2023-02-01T06:03:40;4.47;;;1.15;;
57047;SDS011;42934;54.294;18.598;2023-02-01T06:06:09;6.47;;;1.30;;
57047;SDS011;42934;54.294;18.598;2023-02-01T06:08:40;5.97;;;1.42;;
57047;SDS011;42934;54.294;18.598;2023-02-01T06:11:09;6.65;;;1.20;;
57047;SDS011;42934;54.294;18.598;2023-02-01T06:13:49;6.50;;;1.35;;
57047;SDS011;42934;54.294;18.598;2023-02-01T06:16:18;5.43;;;1.17;;
57047;SDS011;42934;54.294;18.598;2023-02-01T06:18:47;2.75;;;1.00;;
57047;SDS011;42934;54.294;18.598;2023-02-01T06:21:16;3.10;;;1.30;;
57047;SDS011;42934;54.294;18.598;2023-02-01T06:23:52;6.13;;;1.70;;
57047;SDS011;42934;54.294;18.598;2023-02-01T06:26:24;5.93;;;1.63;;
57047;SDS011;42934;54.294;18.598;2023-02-01T06:28:55;6.05;;;1.90;;
57047;SDS011;42934;54.294;18.598;2023-02-01T06:31:24;4.47;;;1.70;;
57047;SDS011;42934;54.294;18.598;2023-02-01T06:33:54;6.28;;;1.98;;
57047;SDS011;42934;54.294;18.598;2023-02-01T06:36:23;3.55;;;1.33;;
57047;SDS011;42934;54.294;18.598;2023-02-01T06:38:53;5.38;;;1.42;;
57047;SDS011;42934;54.294;18.598;2023-02-01T06:41:25;6.03;;;1.45;;
57047;SDS011;42934;54.294;18.598;2023-02-01T06:43:55;6.60;;;1.50;;
57047;SDS011;42934;54.294;18.598;2023-02-01T06:46:24;5.68;;;1.30;;
57047;SDS011;42934;54.294;18.598;2023-02-01T06:48:53;8.00;;;1.80;;
57047;SDS011;42934;54.294;18.598;2023-02-01T06:51:23;5.88;;;1.48;;
57047;SDS011;42934;54.294;18.598;2023-02-01T06:53:56;6.55;;;1.85;;
57047;SDS011;42934;54.294;18.598;2023-02-01T06:56:26;10.73;;;1.60;;
57047;SDS011;42934;54.294;18.598;2023-02-01T06:58:55;7.17;;;1.87;;
57047;SDS011;42934;54.294;18.598;2023-02-01T07:01:24;9.43;;;1.70;;
57047;SDS011;42934;54.294;18.598;2023-02-01T07:03:54;5.33;;;1.27;;
57047;SDS011;42934;54.294;18.598;2023-02-01T07:06:23;7.72;;;1.27;;
57047;SDS011;42934;54.294;18.598;2023-02-01T07:08:52;4.72;;;1.23;;
57047;SDS011;42934;54.294;18.598;2023-02-01T07:11:23;6.18;;;1.20;;
57047;SDS011;42934;54.294;18.598;2023-02-01T07:13:54;5.72;;;1.40;;
57047;SDS011;42934;54.294;18.598;2023-02-01T07:16:23;6.50;;;1.58;;
57047;SDS011;42934;54.294;18.598;2023-02-01T07:18:52;11.70;;;2.65;;
57047;SDS011;42934;54.294;18.598;2023-02-01T07:21:21;5.28;;;1.30;;
57047;SDS011;42934;54.294;18.598;2023-02-01T07:23:51;5.90;;;1.38;;
57047;SDS011;42934;54.294;18.598;2023-02-01T07:26:19;7.25;;;1.77;;
57047;SDS011;42934;54.294;18.598;2023-02-01T07:28:50;8.85;;;1.65;;
57047;SDS011;42934;54.294;18.598;2023-02-01T07:33:49;9.02;;;1.70;;
57047;SDS011;42934;54.294;18.598;2023-02-01T07:36:19;13.02;;;2.25;;
57047;SDS011;42934;54.294;18.598;2023-02-01T07:38:48;11.00;;;1.83;;
57047;SDS011;42934;54.294;18.598;2023-02-01T07:41:21;15.27;;;2.22;;
57047;SDS011;42934;54.294;18.598;2023-02-01T07:43:53;14.65;;;2.20;;
57047;SDS011;42934;54.294;18.598;2023-02-01T07:46:22;13.45;;;2.28;;
57047;SDS011;42934;54.294;18.598;2023-02-01T07:48:51;13.17;;;2.17;;
57047;SDS011;42934;54.294;18.598;2023-02-01T07:51:20;9.70;;;2.15;;
57047;SDS011;42934;54.294;18.598;2023-02-01T07:53:49;14.20;;;2.65;;
57047;SDS011;42934;54.294;18.598;2023-02-01T07:56:21;13.43;;;2.60;;
57047;SDS011;42934;54.294;18.598;2023-02-01T07:58:53;10.38;;;2.38;;
57047;SDS011;42934;54.294;18.598;2023-02-01T08:01:24;11.75;;;2.42;;
57047;SDS011;42934;54.294;18.598;2023-02-01T08:03:55;13.65;;;2.90;;
57047;SDS011;42934;54.294;18.598;2023-02-01T08:06:27;8.85;;;2.10;;
57047;SDS011;42934;54.294;18.598;2023-02-01T08:08:57;14.07;;;2.53;;
57047;SDS011;42934;54.294;18.598;2023-02-01T08:11:26;12.20;;;2.30;;
57047;SDS011;42934;54.294;18.598;2023-02-01T08:19:05;9.43;;;1.98;;
57047;SDS011;42934;54.294;18.598;2023-02-01T08:22:04;16.38;;;2.55;;
57047;SDS011;42934;54.294;18.598;2023-02-01T08:24:34;15.98;;;2.08;;
57047;SDS011;42934;54.294;18.598;2023-02-01T08:27:04;14.50;;;2.65;;
57047;SDS011;42934;54.294;18.598;2023-02-01T08:29:35;19.08;;;2.72;;
57047;SDS011;42934;54.294;18.598;2023-02-01T08:32:04;12.25;;;2.30;;
57047;SDS011;42934;54.294;18.598;2023-02-01T08:34:33;13.50;;;2.22;;
57047;SDS011;42934;54.294;18.598;2023-02-01T08:37:02;14.90;;;2.55;;
57047;SDS011;42934;54.294;18.598;2023-02-01T08:39:32;12.40;;;2.25;;
57047;SDS011;42934;54.294;18.598;2023-02-01T08:44:50;11.30;;;3.30;;
57047;SDS011;42934;54.294;18.598;2023-02-01T08:47:19;17.92;;;2.58;;
57047;SDS011;42934;54.294;18.598;2023-02-01T08:49:48;14.30;;;2.70;;
57047;SDS011;42934;54.294;18.598;2023-02-01T08:52:18;15.53;;;2.80;;
57047;SDS011;42934;54.294;18.598;2023-02-01T08:54:47;16.70;;;2.85;;
57047;SDS011;42934;54.294;18.598;2023-02-01T08:57:16;16.52;;;2.53;;
57047;SDS011;42934;54.294;18.598;2023-02-01T08:59:45;16.83;;;2.67;;
57047;SDS011;42934;54.294;18.598;2023-02-01T09:02:16;17.05;;;2.47;;
57047;SDS011;42934;54.294;18.598;2023-02-01T09:04:46;13.25;;;3.00;;
57047;SDS011;42934;54.294;18.598;2023-02-01T09:07:14;20.92;;;3.33;;
57047;SDS011;42934;54.294;18.598;2023-02-01T09:09:44;13.43;;;2.95;;
57047;SDS011;42934;54.294;18.598;2023-02-01T09:12:16;13.88;;;2.50;;
57047;SDS011;42934;54.294;18.598;2023-02-01T09:14:45;13.82;;;2.53;;
57047;SDS011;42934;54.294;18.598;2023-02-01T09:17:16;14.90;;;3.40;;
57047;SDS011;42934;54.294;18.598;2023-02-01T09:19:45;16.33;;;2.70;;
57047;SDS011;42934;54.294;18.598;2023-02-01T09:22:14;11.70;;;2.25;;
57047;SDS011;42934;54.294;18.598;2023-02-01T09:24:44;11.98;;;2.17;;
57047;SDS011;42934;54.294;18.598;2023-02-01T09:27:13;16.88;;;3.10;;
57047;SDS011;42934;54.294;18.598;2023-02-01T09:29:43;16.88;;;4.15;;
57047;SDS011;42934;54.294;18.598;2023-02-01T09:32:17;20.63;;;4.15;;
57047;SDS011;42934;54.294;18.598;2023-02-01T09:34:47;14.77;;;3.22;;
57047;SDS011;42934;54.294;18.598;2023-02-01T09:37:17;9.63;;;2.30;;
57047;SDS011;42934;54.294;18.598;2023-02-01T09:39:46;10.90;;;2.10;;
57047;SDS011;42934;54.294;18.598;2023-02-01T09:42:18;24.42;;;4.70;;
57047;SDS011;42934;54.294;18.598;2023-02-01T09:45:09;21.75;;;3.55;;
57047;SDS011;42934;54.294;18.598;2023-02-01T09:47:47;10.13;;;1.95;;
57047;SDS011;42934;54.294;18.598;2023-02-01T09:50:22;19.38;;;3.88;;
57047;SDS011;42934;54.294;18.598;2023-02-01T09:52:59;10.27;;;2.00;;
57047;SDS011;42934;54.294;18.598;2023-02-01T09:55:34;14.05;;;2.92;;
57047;SDS011;42934;54.294;18.598;2023-02-01T09:58:08;15.85;;;2.67;;
57047;SDS011;42934;54.294;18.598;2023-02-01T10:00:43;18.50;;;3.38;;
57047;SDS011;42934;54.294;18.598;2023-02-01T10:03:19;39.35;;;9.88;;
57047;SDS011;42934;54.294;18.598;2023-02-01T10:05:58;14.82;;;3.72;;
57047;SDS011;42934;54.294;18.598;2023-02-01T10:08:42;11.38;;;2.63;;
57047;SDS011;42934;54.294;18.598;2023-02-01T10:11:37;12.85;;;2.17;;
57047;SDS011;42934;54.294;18.598;2023-02-01T10:14:20;12.93;;;3.08;;
57047;SDS011;42934;54.294;18.598;2023-02-01T10:17:12;12.35;;;1.80;;
57047;SDS011;42934;54.294;18.598;2023-02-01T10:19:51;9.75;;;1.90;;
57047;SDS011;42934;54.294;18.598;2023-02-01T10:22:33;7.90;;;1.92;;
57047;SDS011;42934;54.294;18.598;2023-02-01T10:25:28;8.32;;;1.80;;
57047;SDS011;42934;54.294;18.598;2023-02-01T10:28:04;10.40;;;1.48;;
57047;SDS011;42934;54.294;18.598;2023-02-01T10:30:37;8.80;;;1.90;;
57047;SDS011;42934;54.294;18.598;2023-02-01T10:33:14;8.85;;;1.52;;
57047;SDS011;42934;54.294;18.598;2023-02-01T10:35:46;9.85;;;2.00;;
57047;SDS011;42934;54.294;18.598;2023-02-01T10:38:24;8.20;;;2.38;;
57047;SDS011;42934;54.294;18.598;2023-02-01T10:41:01;10.57;;;2.08;;
57047;SDS011;42934;54.294;18.598;2023-02-01T10:43:32;8.38;;;2.10;;
57047;SDS011;42934;54.294;18.598;2023-02-01T10:46:01;9.63;;;2.35;;
57047;SDS011;42934;54.294;18.598;2023-02-01T10:48:30;10.32;;;2.60;;
57047;SDS011;42934;54.294;18.598;2023-02-01T10:51:02;10.25;;;2.58;;
57047;SDS011;42934;54.294;18.598;2023-02-01T10:53:34;5.82;;;1.88;;
57047;SDS011;42934;54.294;18.598;2023-02-01T10:56:10;22.55;;;4.90;;
57047;SDS011;42934;54.294;18.598;2023-02-01T10:58:44;9.90;;;2.28;;
57047;SDS011;42934;54.294;18.598;2023-02-01T11:01:16;4.20;;;1.73;;
57047;SDS011;42934;54.294;18.598;2023-02-01T11:03:52;6.75;;;1.83;;
57047;SDS011;42934;54.294;18.598;2023-02-01T11:06:26;8.07;;;1.77;;
57047;SDS011;42934;54.294;18.598;2023-02-01T11:08:57;19.58;;;3.38;;
57047;SDS011;42934;54.294;18.598;2023-02-01T11:11:27;11.63;;;2.40;;
57047;SDS011;42934;54.294;18.598;2023-02-01T11:13:58;7.77;;;1.90;;
57047;SDS011;42934;54.294;18.598;2023-02-01T11:16:30;9.10;;;2.25;;
57047;SDS011;42934;54.294;18.598;2023-02-01T11:19:02;6.18;;;1.67;;
57047;SDS011;42934;54.294;18.598;2023-02-01T11:21:33;4.18;;;1.30;;
57047;SDS011;42934;54.294;18.598;2023-02-01T11:24:06;2.90;;;1.17;;
57047;SDS011;42934;54.294;18.598;2023-02-01T11:26:44;4.72;;;1.48;;
57047;SDS011;42934;54.294;18.598;2023-02-01T11:29:14;3.65;;;1.27;;
57047;SDS011;42934;54.294;18.598;2023-02-01T11:31:48;6.40;;;1.77;;
57047;SDS011;42934;54.294;18.598;2023-02-01T11:34:20;4.53;;;1.10;;
57047;SDS011;42934;54.294;18.598;2023-02-01T11:36:53;4.40;;;1.65;;
57047;SDS011;42934;54.294;18.598;2023-02-01T11:39:28;2.47;;;1.00;;
57047;SDS011;42934;54.294;18.598;2023-02-01T11:42:01;3.75;;;1.30;;
57047;SDS011;42934;54.294;18.598;2023-02-01T11:44:33;2.67;;;1.13;;
57047;SDS011;42934;54.294;18.598;2023-02-01T11:47:21;3.33;;;1.55;;
57047;SDS011;42934;54.294;18.598;2023-02-01T11:49:54;3.78;;;1.38;;
57047;SDS011;42934;54.294;18.598;2023-02-01T11:52:33;7.07;;;1.52;;
57047;SDS011;42934;54.294;18.598;2023-02-01T11:55:14;6.07;;;1.60;;
57047;SDS011;42934;54.294;18.598;2023-02-01T11:58:00;4.20;;;1.48;;
57047;SDS011;42934;54.294;18.598;2023-02-01T12:00:44;3.72;;;1.40;;
57047;SDS011;42934;54.294;18.598;2023-02-01T12:03:29;4.65;;;1.40;;
57047;SDS011;42934;54.294;18.598;2023-02-01T12:06:18;5.45;;;2.03;;
57047;SDS011;42934;54.294;18.598;2023-02-01T12:09:04;7.05;;;2.05;;
57047;SDS011;42934;54.294;18.598;2023-02-01T12:11:56;8.82;;;2.20;;
57047;SDS011;42934;54.294;18.598;2023-02-01T12:14:36;8.27;;;1.90;;
57047;SDS011;42934;54.294;18.598;2023-02-01T12:20:15;7.97;;;1.77;;
57047;SDS011;42934;54.294;18.598;2023-02-01T12:23:02;5.70;;;1.63;;
57047;SDS011;42934;54.294;18.598;2023-02-01T12:25:55;8.15;;;1.88;;
57047;SDS011;42934;54.294;18.598;2023-02-01T12:28:35;5.65;;;2.10;;
57047;SDS011;42934;54.294;18.598;2023-02-01T12:34:33;5.75;;;1.75;;
57047;SDS011;42934;54.294;18.598;2023-02-01T12:37:18;6.85;;;2.00;;
57047;SDS011;42934;54.294;18.598;2023-02-01T12:40:02;6.65;;;2.05;;
57047;SDS011;42934;54.294;18.598;2023-02-01T12:42:57;6.88;;;1.83;;
57047;SDS011;42934;54.294;18.598;2023-02-01T12:45:30;5.55;;;1.90;;
57047;SDS011;42934;54.294;18.598;2023-02-01T12:48:08;3.85;;;1.40;;
57047;SDS011;42934;54.294;18.598;2023-02-01T12:50:52;4.68;;;1.30;;
57047;SDS011;42934;54.294;18.598;2023-02-01T12:53:27;5.35;;;1.33;;
57047;SDS011;42934;54.294;18.598;2023-02-01T12:56:02;3.67;;;0.90;;
57047;SDS011;42934;54.294;18.598;2023-02-01T12:58:40;6.85;;;0.90;;
57047;SDS011;42934;54.294;18.598;2023-02-01T13:01:16;3.20;;;1.10;;
57047;SDS011;42934;54.294;18.598;2023-02-01T13:03:52;3.60;;;1.10;;
57047;SDS011;42934;54.294;18.598;2023-02-01T13:06:27;3.55;;;1.20;;
57047;SDS011;42934;54.294;18.598;2023-02-01T13:09:02;3.88;;;1.42;;
57047;SDS011;42934;54.294;18.598;2023-02-01T13:11:38;7.65;;;1.58;;
57047;SDS011;42934;54.294;18.598;2023-02-01T13:14:15;2.95;;;1.30;;
57047;SDS011;42934;54.294;18.598;2023-02-01T13:16:56;5.13;;;1.70;;
57047;SDS011;42934;54.294;18.598;2023-02-01T13:19:29;3.78;;;1.52;;
57047;SDS011;42934;54.294;18.598;2023-02-01T13:22:06;5.32;;;1.92;;
57047;SDS011;42934;54.294;18.598;2023-02-01T13:24:42;6.63;;;1.67;;
57047;SDS011;42934;54.294;18.598;2023-02-01T13:27:17;6.43;;;1.90;;
57047;SDS011;42934;54.294;18.598;2023-02-01T13:29:50;10.00;;;2.33;;
57047;SDS011;42934;54.294;18.598;2023-02-01T13:32:35;6.03;;;2.20;;
57047;SDS011;42934;54.294;18.598;2023-02-01T13:36:06;9.63;;;2.55;;
57047;SDS011;42934;54.294;18.598;2023-02-01T13:39:02;8.32;;;2.30;;
57047;SDS011;42934;54.294;18.598;2023-02-01T13:41:52;6.80;;;2.33;;
57047;SDS011;42934;54.294;18.598;2023-02-01T13:44:25;11.10;;;2.28;;
57047;SDS011;42934;54.294;18.598;2023-02-01T13:46:59;11.40;;;2.90;;
57047;SDS011;42934;54.294;18.598;2023-02-01T13:49:32;9.68;;;3.03;;
57047;SDS011;42934;54.294;18.598;2023-02-01T13:52:17;9.15;;;2.55;;
57047;SDS011;42934;54.294;18.598;2023-02-01T13:55:01;11.10;;;2.10;;
57047;SDS011;42934;54.294;18.598;2023-02-01T13:57:42;5.43;;;1.48;;
57047;SDS011;42934;54.294;18.598;2023-02-01T14:00:25;6.22;;;1.65;;
57047;SDS011;42934;54.294;18.598;2023-02-01T14:05:59;7.55;;;1.45;;
57047;SDS011;42934;54.294;18.598;2023-02-01T14:08:45;4.80;;;1.50;;
57047;SDS011;42934;54.294;18.598;2023-02-01T14:11:42;2.83;;;1.20;;
57047;SDS011;42934;54.294;18.598;2023-02-01T14:23:38;6.38;;;1.60;;
57047;SDS011;42934;54.294;18.598;2023-02-01T14:26:12;7.50;;;1.60;;
57047;SDS011;42934;54.294;18.598;2023-02-01T14:28:46;8.45;;;1.85;;
57047;SDS011;42934;54.294;18.598;2023-02-01T14:31:37;7.60;;;1.85;;
57047;SDS011;42934;54.294;18.598;2023-02-01T14:34:12;5.95;;;1.95;;
57047;SDS011;42934;54.294;18.598;2023-02-01T14:36:47;6.47;;;1.98;;
57047;SDS011;42934;54.294;18.598;2023-02-01T14:39:27;9.27;;;2.20;;
57047;SDS011;42934;54.294;18.598;2023-02-01T14:42:03;7.55;;;2.13;;
57047;SDS011;42934;54.294;18.598;2023-02-01T14:44:41;7.07;;;3.00;;
57047;SDS011;42934;54.294;18.598;2023-02-01T14:47:32;8.40;;;2.38;;
57047;SDS011;42934;54.294;18.598;2023-02-01T14:50:03;10.55;;;2.30;;
57047;SDS011;42934;54.294;18.598;2023-02-01T14:53:01;10.40;;;2.72;;
57047;SDS011;42934;54.294;18.598;2023-02-01T14:55:43;8.55;;;2.42;;
57047;SDS011;42934;54.294;18.598;2023-02-01T14:58:18;7.10;;;2.40;;
57047;SDS011;42934;54.294;18.598;2023-02-01T15:01:00;12.32;;;2.85;;
57047;SDS011;42934;54.294;18.598;2023-02-01T15:03:36;8.05;;;2.55;;
57047;SDS011;42934;54.294;18.598;2023-02-01T15:09:08;9.05;;;3.13;;
57047;SDS011;42934;54.294;18.598;2023-02-01T15:11:58;10.88;;;3.15;;
57047;SDS011;42934;54.294;18.598;2023-02-01T15:14:30;5.68;;;1.80;;
57047;SDS011;42934;54.294;18.598;2023-02-01T15:17:01;4.65;;;1.38;;
57047;SDS011;42934;54.294;18.598;2023-02-01T15:19:52;4.22;;;1.27;;
57047;SDS011;42934;54.294;18.598;2023-02-01T15:22:22;5.07;;;1.98;;
57047;SDS011;42934;54.294;18.598;2023-02-01T15:24:52;3.65;;;1.48;;
57047;SDS011;42934;54.294;18.598;2023-02-01T15:27:23;3.88;;;1.42;;
57047;SDS011;42934;54.294;18.598;2023-02-01T15:29:53;5.07;;;1.48;;
57047;SDS011;42934;54.294;18.598;2023-02-01T15:32:29;5.97;;;1.40;;
57047;SDS011;42934;54.294;18.598;2023-02-01T15:34:59;5.50;;;2.28;;
57047;SDS011;42934;54.294;18.598;2023-02-01T15:37:30;4.40;;;2.00;;
57047;SDS011;42934;54.294;18.598;2023-02-01T15:40:03;4.70;;;1.73;;
57047;SDS011;42934;54.294;18.598;2023-02-01T15:42:51;3.65;;;2.17;;
57047;SDS011;42934;54.294;18.598;2023-02-01T15:45:22;6.57;;;2.25;;
57047;SDS011;42934;54.294;18.598;2023-02-01T15:47:56;6.03;;;2.20;;
57047;SDS011;42934;54.294;18.598;2023-02-01T15:50:27;3.92;;;2.10;;
57047;SDS011;42934;54.294;18.598;2023-02-01T15:52:59;6.85;;;3.20;;
57047;SDS011;42934;54.294;18.598;2023-02-01T15:55:31;5.03;;;2.67;;
57047;SDS011;42934;54.294;18.598;2023-02-01T15:58:07;7.80;;;3.08;;
57047;SDS011;42934;54.294;18.598;2023-02-01T16:00:43;5.68;;;2.67;;
57047;SDS011;42934;54.294;18.598;2023-02-01T16:03:26;10.07;;;4.60;;
57047;SDS011;42934;54.294;18.598;2023-02-01T16:06:03;9.55;;;4.30;;
57047;SDS011;42934;54.294;18.598;2023-02-01T16:08:34;18.95;;;7.35;;